Time;durP1;ratioP1;P1;durP2;ratioP2;P2;SDS_P1;SDS_P2;PMS_P1;PMS_P2;Temp;Humidity;BMP_temperature;BMP_pressure;BME280_temperature;BME280_humidity;BME280_pressure;Samples;Min_cycle;Max_cycle;Signal;HPM_P1;HPM_P2
2022/04/11 00:01:30;;;;;;;4.63;2.53;;;;;;;4.87;100.00;98354.06;5014060;28;20214;-85
2022/04/11 00:03:55;;;;;;;3.27;2.17;;;;;;;5.06;100.00;98394.28;5014115;28;20166;-85
2022/04/11 00:06:21;;;;;;;3.47;2.67;;;;;;;4.89;100.00;98351.63;5013617;28;20221;-85
2022/04/11 00:08:46;;;;;;;2.67;2.17;;;;;;;5.82;100.00;98521.78;5012434;28;20162;-85
2022/04/11 00:11:11;;;;;;;3.20;2.33;;;;;;;6.77;100.00;98671.28;5013884;28;20155;-85
2022/04/11 00:13:37;;;;;;;3.30;2.20;;;;;;;6.72;100.00;98677.75;5014007;28;20250;-86
2022/04/11 00:16:03;;;;;;;2.67;2.17;;;;;;;6.80;100.00;98657.97;5012972;28;20649;-85
2022/04/11 00:18:28;;;;;;;3.00;2.30;;;;;;;5.88;100.00;98537.19;5014098;28;20194;-85
2022/04/11 00:20:54;;;;;;;3.73;2.63;;;;;;;6.80;100.00;98719.22;5013795;28;20444;-85
2022/04/11 00:23:19;;;;;;;3.83;2.77;;;;;;;6.43;100.00;98621.06;5013720;28;20158;-85
2022/04/11 00:25:45;;;;;;;3.37;2.23;;;;;;;6.89;100.00;98689.47;5013038;28;20167;-85
2022/04/11 00:28:10;;;;;;;4.03;3.17;;;;;;;6.89;100.00;98691.13;5013063;28;20217;-84
2022/04/11 00:30:36;;;;;;;2.33;2.03;;;;;;;6.93;100.00;98716.47;5012175;28;20167;-85
2022/04/11 00:33:02;;;;;;;4.00;2.60;;;;;;;5.24;100.00;98430.31;5013216;28;20545;-85
2022/04/11 00:35:27;;;;;;;3.47;2.63;;;;;;;5.93;100.00;98539.94;5012263;28;20167;-84
2022/04/11 00:37:53;;;;;;;5.17;3.23;;;;;;;6.61;100.00;98650.38;5013033;28;21035;-85
2022/04/11 00:40:19;;;;;;;5.53;3.40;;;;;;;6.02;100.00;98562.09;5012939;28;20178;-85
2022/04/11 00:42:49;;;;;;;2.80;2.30;;;;;;;5.62;100.00;98506.56;5012958;28;20273;-84
2022/04/11 00:45:14;;;;;;;2.73;2.43;;;;;;;6.09;100.00;98592.63;5013038;28;20400;-84
2022/04/11 00:47:39;;;;;;;3.37;2.53;;;;;;;5.05;100.00;98411.78;5012846;28;20476;-85
2022/04/11 00:50:08;;;;;;;2.80;2.00;;;;;;;3.98;100.00;98239.38;5013430;28;20241;-85
2022/04/11 00:52:38;;;;;;;3.53;2.37;;;;;;;6.89;100.00;98723.81;5013286;28;20588;-85
2022/04/11 00:55:07;;;;;;;3.47;2.97;;;;;;;6.97;100.00;98742.66;5012997;28;20404;-85
2022/04/11 00:57:33;;;;;;;8.43;2.30;;;;;;;5.54;100.00;98528.78;5012796;28;20772;-85
2022/04/11 00:59:59;;;;;;;2.33;2.00;;;;;;;6.84;100.00;98738.69;5013010;28;20409;-85
2022/04/11 01:02:25;;;;;;;3.70;2.67;;;;;;;6.29;100.00;98643.84;5012543;28;20193;-85
2022/04/11 01:04:51;;;;;;;3.70;2.80;;;;;;;6.97;100.00;98756.09;5011625;28;20426;-85
2022/04/11 01:07:16;;;;;;;3.10;2.53;;;;;;;5.38;100.00;98499.56;5012597;28;20217;-85
2022/04/11 01:09:42;;;;;;;2.70;2.33;;;;;;;6.46;100.00;98686.56;5012454;28;20155;-84
2022/04/11 01:12:08;;;;;;;3.37;2.50;;;;;;;5.10;100.00;98468.91;5013099;28;20209;-85
2022/04/11 01:14:33;;;;;;;2.80;2.47;;;;;;;6.04;100.00;98608.25;5011432;28;20170;-86
2022/04/11 01:16:59;;;;;;;3.17;2.80;;;;;;;5.13;100.00;98464.03;5012322;28;20610;-85
2022/04/11 01:19:25;;;;;;;2.60;2.33;;;;;;;5.68;100.00;98573.00;5012374;28;20606;-86
2022/04/11 01:21:51;;;;;;;3.23;2.50;;;;;;;4.98;100.00;98453.22;5012137;28;20680;-85
2022/04/11 01:24:20;;;;;;;2.93;2.60;;;;;;;5.52;100.00;98504.41;5012625;28;20544;-86
2022/04/11 01:26:48;;;;;;;3.20;2.77;;;;;;;6.93;100.00;98786.06;5012625;28;20171;-85
2022/04/11 01:29:15;;;;;;;3.43;3.03;;;;;;;6.64;100.00;98721.81;5012333;28;20431;-85
2022/04/11 01:31:41;;;;;;;3.43;2.57;;;;;;;6.97;100.00;98800.53;5012562;28;20961;-85
2022/04/11 01:34:06;;;;;;;3.40;2.43;;;;;;;6.88;100.00;98787.50;5012784;28;20405;-85
2022/04/11 01:36:32;;;;;;;4.47;2.80;;;;;;;6.77;100.00;98793.66;5011139;28;20228;-86
2022/04/11 01:38:57;;;;;;;3.70;2.73;;;;;;;6.59;100.00;98757.56;5010996;28;20163;-85
2022/04/11 01:41:23;;;;;;;3.60;2.57;;;;;;;6.35;100.00;98697.75;5013111;28;20193;-85
2022/04/11 01:43:48;;;;;;;4.30;2.87;;;;;;;4.80;100.00;98471.50;5032561;28;20158;-85
2022/04/11 01:46:14;;;;;;;3.13;2.67;;;;;;;4.78;100.00;98474.78;5026832;28;20197;-85
2022/04/11 01:48:39;;;;;;;4.00;3.00;;;;;;;6.04;100.00;98671.94;5015211;28;20222;-86
2022/04/11 01:51:05;;;;;;;4.10;2.80;;;;;;;6.70;100.00;98807.59;5020011;28;20190;-85
2022/04/11 01:53:31;;;;;;;4.93;2.97;;;;;;;6.69;100.00;98794.94;5033979;28;20386;-85
2022/04/11 01:55:57;;;;;;;4.80;3.10;;;;;;;4.94;100.00;98534.13;5012863;28;20169;-86
2022/04/11 01:58:22;;;;;;;3.87;3.27;;;;;;;5.58;100.00;98640.25;5012302;28;20170;-85
2022/04/11 02:00:47;;;;;;;3.70;2.70;;;;;;;6.58;100.00;98841.31;5012462;28;20256;-85
2022/04/11 02:03:13;;;;;;;5.70;3.80;;;;;;;4.60;100.00;98485.53;5016166;28;20187;-86
2022/04/11 02:05:41;;;;;;;4.07;3.10;;;;;;;6.53;100.00;98824.38;5014119;28;20581;-86
2022/04/11 02:08:07;;;;;;;4.87;3.27;;;;;;;5.77;100.00;98699.00;5011981;28;20166;-85
2022/04/11 02:10:35;;;;;;;6.53;3.87;;;;;;;6.56;100.00;98837.88;5011129;28;20418;-85
2022/04/11 02:13:01;;;;;;;4.63;2.93;;;;;;;5.30;100.00;98638.81;5016036;28;20412;-85
2022/04/11 02:15:26;;;;;;;4.80;3.50;;;;;;;6.48;100.00;98835.81;5029516;28;20410;-85
2022/04/11 02:17:52;;;;;;;6.90;3.97;;;;;;;4.89;100.00;98583.16;5018511;28;20253;-85
2022/04/11 02:20:18;;;;;;;5.67;4.50;;;;;;;5.39;100.00;98648.47;5015007;28;20173;-85
2022/04/11 02:22:52;;;;;;;5.50;3.67;;;;;;;6.25;100.00;98780.16;5013564;28;20194;-85
2022/04/11 02:25:19;;;;;;;6.77;4.30;;;;;;;6.33;100.00;98804.91;5012796;28;20178;-84
2022/04/11 02:27:45;;;;;;;6.67;4.50;;;;;;;5.85;100.00;98696.94;5012628;28;20405;-85
2022/04/11 02:30:13;;;;;;;7.33;4.70;;;;;;;6.34;100.00;98760.53;5010921;28;20421;-85
2022/04/11 02:32:39;;;;;;;6.80;4.60;;;;;;;6.92;100.00;98869.88;5011723;28;20620;-85
2022/04/11 02:35:05;;;;;;;6.43;4.57;;;;;;;6.85;100.00;98882.94;5011888;28;20401;-85
2022/04/11 02:37:31;;;;;;;6.00;4.00;;;;;;;4.40;100.00;98494.50;5011757;28;20167;-85
2022/04/11 02:39:56;;;;;;;7.37;5.07;;;;;;;6.11;100.00;98768.56;5011618;28;20166;-86
2022/04/11 02:42:22;;;;;;;7.87;5.00;;;;;;;6.78;100.00;98901.91;5011608;28;20183;-85
2022/04/11 02:44:49;;;;;;;5.60;3.77;;;;;;;6.74;100.00;98897.50;5010481;28;20267;-85
2022/04/11 02:47:14;;;;;;;6.40;4.80;;;;;;;6.66;100.00;98910.47;5011659;28;20475;-85
2022/04/11 02:49:40;;;;;;;8.33;5.27;;;;;;;6.22;100.00;98826.13;5013380;28;20410;-86
2022/04/11 02:52:06;;;;;;;6.40;4.90;;;;;;;5.36;100.00;98666.75;5015773;28;20175;-86
2022/04/11 02:54:31;;;;;;;6.60;4.63;;;;;;;5.24;100.00;98676.16;5014789;28;20256;-85
2022/04/11 02:56:56;;;;;;;7.10;4.97;;;;;;;6.16;100.00;98830.81;5003004;28;20468;-85
2022/04/11 02:59:23;;;;;;;7.57;4.73;;;;;;;4.89;100.00;98617.41;4995599;28;20171;-85
2022/04/11 03:01:48;;;;;;;8.80;4.90;;;;;;;6.43;100.00;98853.97;4995646;28;20216;-85
2022/04/11 03:04:14;;;;;;;9.60;5.50;;;;;;;5.05;100.00;98645.88;4995008;28;20410;-85
2022/04/11 03:06:40;;;;;;;8.20;5.70;;;;;;;5.79;100.00;98736.75;5011273;28;20183;-85
2022/04/11 03:09:05;;;;;;;7.23;5.03;;;;;;;6.35;100.00;98838.50;4995781;28;20164;-85
2022/04/11 03:11:30;;;;;;;6.93;4.83;;;;;;;5.35;100.00;98694.28;4993474;28;20220;-86
2022/04/11 03:13:56;;;;;;;8.50;4.90;;;;;;;4.65;100.00;98621.97;4994492;28;20171;-86
2022/04/11 03:16:21;;;;;;;11.30;5.80;;;;;;;3.90;100.00;98506.81;4993252;28;20179;-85
2022/04/11 03:18:46;;;;;;;10.40;6.17;;;;;;;4.84;100.00;98649.75;4995646;28;20254;-86
2022/04/11 03:21:12;;;;;;;9.67;5.50;;;;;;;5.43;100.00;98775.00;4993774;28;20171;-86
2022/04/11 03:23:37;;;;;;;38.70;19.37;;;;;;;4.80;100.00;98632.81;4994633;28;20160;-86
2022/04/11 03:26:02;;;;;;;18.07;10.10;;;;;;;5.66;100.00;98787.97;4994432;28;20174;-86
2022/04/11 03:28:28;;;;;;;12.60;6.80;;;;;;;4.80;100.00;98642.84;4992969;28;20203;-86
2022/04/11 03:30:53;;;;;;;8.13;5.53;;;;;;;4.44;100.00;98615.78;4994246;28;20290;-86
2022/04/11 03:33:19;;;;;;;10.60;5.33;;;;;;;4.56;100.00;98634.03;4993119;28;20557;-85
2022/04/11 03:35:44;;;;;;;8.50;4.80;;;;;;;5.06;100.00;98710.31;4994282;28;20164;-85
2022/04/11 03:38:09;;;;;;;8.10;4.53;;;;;;;6.11;100.00;98882.50;4994182;28;20167;-86
2022/04/11 03:40:35;;;;;;;9.40;5.00;;;;;;;5.14;100.00;98759.22;4998182;28;20171;-86
2022/04/11 03:43:00;;;;;;;10.73;4.53;;;;;;;5.55;100.00;98861.84;4993023;28;20206;-87
2022/04/11 03:45:25;;;;;;;6.17;3.90;;;;;;;6.16;100.00;98998.31;4994364;28;20171;-86
2022/04/11 03:47:51;;;;;;;8.40;4.03;;;;;;;5.10;100.00;98799.13;4994403;28;20227;-86
2022/04/11 03:50:16;;;;;;;5.93;3.87;;;;;;;5.44;100.00;98902.22;4998960;28;20151;-87
2022/04/11 03:52:42;;;;;;;6.37;3.77;;;;;;;5.06;100.00;98804.75;5011490;28;20602;-86
2022/04/11 03:55:07;;;;;;;5.73;3.83;;;;;;;5.17;100.00;98827.13;5000458;28;20175;-86
2022/04/11 03:57:33;;;;;;;5.67;3.47;;;;;;;5.03;100.00;98787.88;5002180;28;20167;-87
2022/04/11 03:59:59;;;;;;;4.60;2.90;;;;;;;5.67;100.00;98922.78;4999348;28;20278;-86
2022/04/11 04:02:24;;;;;;;3.97;2.90;;;;;;;4.85;100.00;98773.47;5000604;28;20210;-86
2022/04/11 04:04:50;;;;;;;4.97;3.10;;;;;;;4.43;100.00;98704.25;5009835;28;20173;-86
2022/04/11 04:07:15;;;;;;;5.17;2.87;;;;;;;6.43;100.00;99045.91;5009478;28;20726;-86
2022/04/11 04:09:41;;;;;;;3.53;2.57;;;;;;;5.04;100.00;98818.84;5004102;28;20175;-86
2022/04/11 04:12:07;;;;;;;3.23;2.20;;;;;;;4.34;100.00;98718.78;5019098;28;20167;-86
2022/04/11 04:14:36;;;;;;;3.90;2.43;;;;;;;5.97;100.00;98991.44;4999359;28;20172;-86
2022/04/11 04:17:02;;;;;;;3.80;2.00;;;;;;;5.06;100.00;98860.78;4999291;28;20485;-87
2022/04/11 04:19:27;;;;;;;2.47;1.70;;;;;;;3.88;100.00;98698.63;4996749;28;20509;-85
2022/04/11 04:21:53;;;;;;;5.17;2.60;;;;;;;5.35;100.00;98933.56;5019952;28;20260;-86
2022/04/11 04:24:22;;;;;;;15.67;8.87;;;;;;;3.98;100.00;98700.88;5017357;28;20217;-86
2022/04/11 04:26:48;;;;;;;12.50;9.03;;;;;;;3.77;100.00;98664.59;5017635;28;20185;-86
2022/04/11 04:29:16;;;;;;;9.93;5.83;;;;;;;3.90;100.00;98699.56;5021148;28;20445;-86
2022/04/11 04:31:42;;;;;;;8.60;5.10;;;;;;;4.88;100.00;98858.91;5017193;28;20437;-86
2022/04/11 04:34:07;;;;;;;17.37;8.30;;;;;;;4.87;100.00;98884.75;5019504;28;20461;-86
2022/04/11 04:36:33;;;;;;;10.23;5.80;;;;;;;5.23;100.00;98925.34;5019543;28;20529;-86
2022/04/11 04:38:58;;;;;;;9.90;6.27;;;;;;;4.27;100.00;98766.81;5018096;28;20261;-85
2022/04/11 04:41:24;;;;;;;14.73;9.10;;;;;;;3.93;100.00;98684.72;5017621;28;20694;-86
2022/04/11 04:43:49;;;;;;;18.50;11.53;;;;;;;4.24;100.00;98741.56;5016365;28;20165;-86
2022/04/11 04:46:14;;;;;;;25.67;14.37;;;;;;;4.78;100.00;98814.88;5013147;28;20162;-86
2022/04/11 04:48:40;;;;;;;18.37;11.07;;;;;;;6.35;100.00;99094.91;5012829;28;20301;-86
2022/04/11 04:51:08;;;;;;;14.40;8.57;;;;;;;3.46;100.00;98623.56;5032417;28;20171;-86
2022/04/11 04:53:33;;;;;;;10.20;5.43;;;;;;;5.56;100.00;98966.50;5033673;28;20191;-86
2022/04/11 04:55:59;;;;;;;6.50;4.27;;;;;;;4.97;100.00;98877.81;5017377;28;20408;-86
2022/04/11 04:58:24;;;;;;;3.97;2.17;;;;;;;6.17;100.00;99058.72;5014367;28;20173;-86
2022/04/11 05:00:49;;;;;;;19.33;8.13;;;;;;;4.83;100.00;98858.66;5012659;28;20587;-86
2022/04/11 05:03:15;;;;;;;14.03;8.90;;;;;;;6.32;100.00;99122.38;5013977;28;20194;-86
2022/04/11 05:05:40;;;;;;;9.93;7.03;;;;;;;4.70;100.00;98853.69;5014766;28;20236;-86
2022/04/11 05:08:06;;;;;;;27.03;11.87;;;;;;;6.05;100.00;99085.66;5012995;28;20225;-86
2022/04/11 05:10:31;;;;;;;30.37;11.20;;;;;;;4.98;100.00;98882.06;5012566;28;21058;-85
2022/04/11 05:12:57;;;;;;;50.90;17.83;;;;;;;4.05;100.00;98725.50;5011691;28;20563;-87
2022/04/11 05:15:23;;;;;;;28.03;10.63;;;;;;;6.77;100.00;99156.75;5012470;28;20173;-86
2022/04/11 05:17:48;;;;;;;3.33;1.70;;;;;;;6.29;100.00;99053.50;5011300;28;20205;-86
2022/04/11 05:20:14;;;;;;;3.20;2.10;;;;;;;6.28;100.00;99041.72;4987120;28;20567;-86
2022/04/11 05:22:40;;;;;;;7.93;4.47;;;;;;;6.88;100.00;99160.72;5012784;28;20195;-86
2022/04/11 05:25:06;;;;;;;2.53;1.83;;;;;;;7.13;100.00;99150.28;5012400;28;20165;-86
2022/04/11 05:27:32;;;;;;;1.73;1.50;;;;;;;5.23;100.00;98804.03;5013020;28;20772;-86
2022/04/11 05:29:57;;;;;;;3.07;2.07;;;;;;;7.25;100.00;99138.34;5012512;28;20413;-86
2022/04/11 05:32:23;;;;;;;3.07;2.43;;;;;;;5.32;100.00;98782.81;5012393;28;20171;-86
2022/04/11 05:34:48;;;;;;;3.53;3.00;;;;;;;4.42;100.00;98638.25;5012816;28;20221;-87
2022/04/11 05:37:13;;;;;;;3.50;2.80;;;;;;;5.85;100.00;98875.25;5016294;28;20671;-86
2022/04/11 05:39:39;;;;;;;1.80;1.30;;;;;;;7.17;100.00;99111.06;5015983;28;20182;-85
2022/04/11 05:42:06;;;;;;;3.53;1.80;;;;;;;5.95;100.00;98920.16;5015005;28;20233;-86
2022/04/11 05:44:32;;;;;;;2.87;2.33;;;;;;;5.85;100.00;98928.00;5015341;28;20414;-87
2022/04/11 05:46:57;;;;;;;4.27;2.00;;;;;;;7.44;100.00;99177.94;5019683;28;20477;-86
2022/04/11 05:49:23;;;;;;;3.73;2.40;;;;;;;7.33;100.00;99111.06;5027492;28;20222;-87
2022/04/11 05:51:48;;;;;;;4.10;2.50;;;;;;;6.52;100.00;98950.00;5025158;28;20173;-87
2022/04/11 05:54:14;;;;;;;2.00;1.30;;;;;;;7.27;100.00;99075.50;5019426;28;20638;-86
2022/04/11 05:56:40;;;;;;;1.30;1.20;;;;;;;7.62;100.00;99181.41;5018301;28;20162;-84
2022/04/11 05:59:08;;;;;;;3.20;2.13;;;;;;;6.91;100.00;98994.81;5018676;28;20199;-84
2022/04/11 06:01:37;;;;;;;2.80;2.17;;;;;;;7.93;100.00;99174.63;5018118;28;20522;-86
2022/04/11 06:04:03;;;;;;;2.10;1.60;;;;;;;7.32;100.00;99074.94;5017937;28;20425;-85
2022/04/11 06:06:29;;;;;;;2.43;1.80;;;;;;;7.93;100.00;99163.66;5014150;28;20412;-84
2022/04/11 06:08:54;;;;;;;5.37;2.30;;;;;;;7.95;100.00;99155.41;5018653;28;20159;-86
2022/04/11 06:11:20;;;;;;;7.57;2.93;;;;;;;7.26;100.00;98921.06;5021046;28;20215;-86
2022/04/11 06:13:45;;;;;;;2.03;1.53;;;;;;;7.19;100.00;98926.59;5014885;28;20230;-86
2022/04/11 06:16:14;;;;;;;2.63;1.80;;;;;;;6.16;100.00;98788.09;5017702;28;20234;-84
2022/04/11 06:18:39;;;;;;;2.90;1.93;;;;;;;6.20;100.00;98817.66;5010004;28;20226;-85
2022/04/11 06:21:05;;;;;;;3.03;2.20;;;;;;;6.50;100.00;98816.69;5013361;28;20441;-85
2022/04/11 06:23:31;;;;;;;3.03;2.17;;;;;;;8.57;100.00;99182.84;5015158;28;20249;-85
2022/04/11 06:25:57;;;;;;;2.90;1.80;;;;;;;8.69;100.00;99179.25;5022080;28;20182;-84
2022/04/11 06:28:23;;;;;;;1.73;1.33;;;;;;;6.43;100.00;98890.03;5037788;28;20405;-85
2022/04/11 06:30:48;;;;;;;2.73;2.10;;;;;;;8.18;100.00;99181.75;5021318;28;20440;-85
2022/04/11 06:33:13;;;;;;;1.73;1.63;;;;;;;7.49;100.00;99043.94;5017003;28;20231;-84
2022/04/11 06:35:39;;;;;;;1.30;1.20;;;;;;;8.38;100.00;99191.16;5017784;28;20166;-86
2022/04/11 06:38:04;;;;;;;1.40;1.20;;;;;;;6.10;100.00;98810.41;5015998;28;20174;-84
2022/04/11 06:40:30;;;;;;;1.33;1.10;;;;;;;8.21;100.00;99156.69;5018627;28;20539;-86
2022/04/11 06:42:55;;;;;;;2.10;1.40;;;;;;;7.29;100.00;98883.44;5017511;28;20203;-87
2022/04/11 06:45:21;;;;;;;2.73;1.93;;;;;;;7.14;100.00;98938.09;5016690;28;20177;-85
2022/04/11 06:47:48;;;;;;;2.13;1.80;;;;;;;7.15;100.00;98980.06;5010430;28;20249;-86
2022/04/11 06:50:14;;;;;;;1.73;1.40;;;;;;;7.49;100.00;98965.84;5012045;28;20422;-86
2022/04/11 06:52:39;;;;;;;1.80;1.60;;;;;;;7.95;100.00;99082.31;5014424;28;20420;-85
2022/04/11 06:55:05;;;;;;;2.93;2.00;;;;;;;8.33;100.00;99142.16;5014314;28;20925;-85
2022/04/11 06:57:30;;;;;;;3.10;2.53;;;;;;;9.08;100.00;99215.56;5015502;28;20608;-86
2022/04/11 06:59:56;;;;;;;2.43;1.83;;;;;;;9.87;100.00;99239.34;5015443;28;20655;-85
2022/04/11 07:02:21;;;;;;;2.70;1.87;;;;;;;7.53;100.00;98868.63;5013537;28;20249;-86
2022/04/11 07:04:47;;;;;;;2.27;1.97;;;;;;;9.54;100.00;99236.22;5016292;28;20220;-86
2022/04/11 07:07:12;;;;;;;1.50;1.20;;;;;;;7.64;100.00;98920.38;5015684;28;20167;-86
2022/04/11 07:09:38;;;;;;;4.47;2.20;;;;;;;8.84;100.00;99121.88;5016098;28;20246;-87
2022/04/11 07:12:04;;;;;;;2.57;1.73;;;;;;;7.96;100.00;98901.72;5018026;28;20171;-85
2022/04/11 07:14:29;;;;;;;2.27;1.40;;;;;;;9.74;100.00;99252.25;5014679;28;20179;-85
2022/04/11 07:16:55;;;;;;;2.60;2.10;;;;;;;7.74;100.00;98902.41;4995623;28;20177;-87
2022/04/11 07:19:20;;;;;;;2.47;1.40;;;;;;;7.91;100.00;98996.41;4986522;28;20242;-85
2022/04/11 07:21:47;;;;;;;4.97;3.37;;;;;;;9.63;100.00;99279.59;5003612;28;20190;-85
2022/04/11 07:24:13;;;;;;;3.37;2.53;;;;;;;10.01;100.00;99279.63;5004835;28;20191;-86
2022/04/11 07:26:40;;;;;;;4.57;3.37;;;;;;;7.80;100.00;98932.03;4992990;28;20193;-85
2022/04/11 07:29:06;;;;;;;7.07;4.93;;;;;;;9.05;100.00;99143.88;5019877;28;20189;-85
2022/04/11 07:31:32;;;;;;;6.37;3.60;;;;;;;7.59;100.00;98896.63;5029374;28;20666;-86
2022/04/11 07:33:57;;;;;;;6.53;3.33;;;;;;;9.18;100.00;99118.34;5018661;28;20175;-85
2022/04/11 07:36:23;;;;;;;5.33;3.47;;;;;;;7.64;100.00;98912.81;5015421;28;20170;-86
2022/04/11 07:38:48;;;;;;;5.30;3.20;;;;;;;8.44;100.00;99088.06;5014375;28;20627;-87
2022/04/11 07:41:14;;;;;;;5.57;2.47;;;;;;;9.84;100.00;99265.38;5014003;28;20186;-86
2022/04/11 07:43:39;;;;;;;4.63;2.67;;;;;;;8.45;100.00;99077.19;5013006;28;20648;-86
2022/04/11 07:46:05;;;;;;;5.07;3.00;;;;;;;8.27;100.00;99067.09;5014255;28;20265;-86
2022/04/11 07:48:32;;;;;;;11.90;5.77;;;;;;;8.33;100.00;99084.16;5013459;28;20237;-86
2022/04/11 07:50:57;;;;;;;3.53;2.70;;;;;;;9.70;100.00;99329.59;5022782;28;20604;-86
2022/04/11 07:53:22;;;;;;;4.10;3.30;;;;;;;9.73;100.00;99317.13;5016460;28;20167;-84
2022/04/11 07:55:48;;;;;;;18.30;12.53;;;;;;;7.59;100.00;99013.34;5014429;28;20167;-85
2022/04/11 07:58:15;;;;;;;14.30;7.27;;;;;;;8.29;100.00;99093.22;5013739;28;20195;-87
2022/04/11 08:00:41;;;;;;;49.00;17.27;;;;;;;7.48;100.00;98993.47;5011369;28;20179;-85
2022/04/11 08:03:06;;;;;;;50.50;22.90;;;;;;;8.37;100.00;99087.69;5011407;28;20677;-85
2022/04/11 08:05:32;;;;;;;21.63;11.63;;;;;;;9.34;100.00;99267.28;5012770;28;20178;-85
2022/04/11 08:07:57;;;;;;;12.20;7.40;;;;;;;9.31;100.00;99250.31;5013333;28;20230;-86
2022/04/11 08:10:23;;;;;;;10.43;5.83;;;;;;;8.47;100.00;99131.09;5014287;28;20167;-85
2022/04/11 08:12:53;;;;;;;14.97;10.13;;;;;;;10.17;100.00;99353.66;5013737;28;20185;-86
2022/04/11 08:15:20;;;;;;;15.43;9.60;;;;;;;9.44;100.00;99252.63;5013793;28;20222;-85
2022/04/11 08:17:45;;;;;;;13.60;7.60;;;;;;;9.20;100.00;99251.47;5013404;28;20674;-85
2022/04/11 08:20:11;;;;;;;11.93;7.20;;;;;;;9.23;100.00;99265.94;5003687;28;20273;-85
2022/04/11 08:22:36;;;;;;;6.83;4.50;;;;;;;9.67;100.00;99294.09;5026132;28;20582;-86
2022/04/11 08:25:02;;;;;;;8.20;4.73;;;;;;;8.09;100.00;98884.69;5013217;28;20194;-86
2022/04/11 08:27:27;;;;;;;20.90;12.53;;;;;;;10.41;100.00;99246.78;5013261;28;20163;-86
2022/04/11 08:29:53;;;;;;;7.77;4.63;;;;;;;8.85;100.00;98974.72;5013148;28;20171;-87
2022/04/11 08:32:18;;;;;;;9.00;4.83;;;;;;;10.00;100.00;99116.03;5011503;28;20608;-86
2022/04/11 08:34:44;;;;;;;21.30;9.70;;;;;;;11.20;100.00;99315.88;5012766;28;20174;-86
2022/04/11 08:37:09;;;;;;;8.57;4.10;;;;;;;10.19;72.38;99144.66;5013597;28;20229;-87
2022/04/11 08:39:35;;;;;;;9.57;6.03;;;;;;;12.23;71.36;99361.28;5012628;28;20557;-88
2022/04/11 08:42:01;;;;;;;5.47;3.43;;;;;;;12.33;67.82;99365.88;5009502;28;20202;-85
2022/04/11 08:44:28;;;;;;;8.50;4.83;;;;;;;11.46;68.53;99192.66;5000825;28;20270;-85
2022/04/11 08:47:01;;;;;;;9.37;4.90;;;;;;;12.09;73.19;99370.06;4992642;28;20227;-87
2022/04/11 08:49:28;;;;;;;9.27;5.20;;;;;;;10.03;72.84;99002.38;5006674;28;20174;-86
2022/04/11 08:51:54;;;;;;;9.23;5.07;;;;;;;10.61;70.52;99090.69;5031710;28;20193;-87
2022/04/11 08:54:20;;;;;;;7.87;5.53;;;;;;;11.39;69.33;99190.72;5021687;28;20627;-86
2022/04/11 08:56:45;;;;;;;9.53;5.93;;;;;;;9.43;71.33;98937.63;5013845;28;20183;-86
2022/04/11 08:59:11;;;;;;;4.50;3.07;;;;;;;10.54;70.84;99177.31;5013080;28;20619;-86
2022/04/11 09:01:36;;;;;;;3.97;2.90;;;;;;;11.40;70.27;99380.03;5013330;28;20252;-86
2022/04/11 09:04:02;;;;;;;6.37;4.00;;;;;;;9.81;71.31;99133.78;5013285;28;20194;-85
2022/04/11 09:06:32;;;;;;;5.40;3.73;;;;;;;10.02;69.70;99154.06;5013398;28;20520;-86
2022/04/11 09:09:00;;;;;;;4.70;3.50;;;;;;;9.47;68.84;99004.31;5011830;28;20241;-86
2022/04/11 09:11:36;;;;;;;6.33;3.70;;;;;;;11.98;69.27;99404.31;5012614;28;20643;-86
2022/04/11 09:14:08;;;;;;;6.60;4.00;;;;;;;10.34;69.86;99115.78;5013275;28;20170;-86
2022/04/11 09:16:49;;;;;;;5.83;3.93;;;;;;;11.54;69.78;99420.31;5010762;28;20209;-86
2022/04/11 09:19:22;;;;;;;10.63;5.47;;;;;;;10.93;70.38;99370.50;5005591;28;20174;-85
2022/04/11 09:21:48;;;;;;;6.63;4.13;;;;;;;10.99;70.81;99428.97;5017705;28;20194;-86
2022/04/11 09:24:21;;;;;;;5.87;4.20;;;;;;;10.23;72.29;99336.25;5012204;28;20202;-85
2022/04/11 09:26:47;;;;;;;5.93;4.43;;;;;;;9.01;72.49;99157.16;5012171;28;20609;-86
2022/04/11 09:29:15;;;;;;;6.47;4.60;;;;;;;8.88;73.37;99189.41;5011392;28;20189;-88
2022/04/11 09:31:41;;;;;;;10.90;6.13;;;;;;;7.29;72.70;98867.47;5011760;28;20567;-85
2022/04/11 09:34:21;;;;;;;11.53;6.80;;;;;;;10.48;70.95;99425.94;5012118;28;20174;-86
2022/04/11 09:36:55;;;;;;;14.07;7.27;;;;;;;10.40;71.37;99444.13;5011220;28;20549;-85
2022/04/11 09:39:22;;;;;;;6.53;4.83;;;;;;;9.99;73.27;99448.13;5010951;28;20217;-86
2022/04/11 09:41:49;;;;;;;9.63;5.60;;;;;;;10.26;73.18;99440.09;5012034;28;20183;-88
2022/04/11 09:44:43;;;;;;;29.07;18.93;;;;;;;10.65;73.17;99436.81;5012226;28;20604;-86
2022/04/11 09:47:09;;;;;;;17.87;10.20;;;;;;;9.59;72.21;99292.88;4952056;29;20259;-87
2022/04/11 09:49:34;;;;;;;38.97;23.20;;;;;;;9.04;71.92;99190.13;4942602;29;20189;-87
2022/04/11 09:52:14;;;;;;;24.47;11.77;;;;;;;10.73;71.41;99455.75;4957811;29;20814;-86
2022/04/11 09:54:45;;;;;;;15.23;8.57;;;;;;;10.27;70.29;99360.88;4954128;29;20172;-87
2022/04/11 09:57:12;;;;;;;12.27;7.47;;;;;;;8.66;70.17;99121.06;4944260;28;20196;-87
2022/04/11 09:59:41;;;;;;;9.43;5.80;;;;;;;10.69;72.14;99469.06;4954713;28;20267;-87
2022/04/11 10:02:10;;;;;;;9.87;7.10;;;;;;;10.09;71.50;99366.81;4972874;28;20208;-86
2022/04/11 10:04:35;;;;;;;14.80;8.83;;;;;;;8.79;71.79;99082.09;4959445;28;20228;-87
2022/04/11 10:07:01;;;;;;;15.17;7.10;;;;;;;11.26;70.62;99473.25;4940537;29;20177;-86
2022/04/11 10:09:27;;;;;;;13.90;7.70;;;;;;;9.80;70.17;99207.03;4953785;28;20188;-87
2022/04/11 10:11:54;;;;;;;8.73;5.50;;;;;;;9.24;68.18;99122.03;4955373;29;20165;-86
2022/04/11 10:14:27;;;;;;;9.73;6.60;;;;;;;9.62;68.09;99183.47;4955728;29;20555;-87
2022/04/11 10:17:00;;;;;;;16.37;9.90;;;;;;;10.48;67.30;99347.50;4955144;29;20192;-86
2022/04/11 10:19:29;;;;;;;22.93;13.37;;;;;;;10.63;66.80;99327.00;4931437;28;20187;-87
2022/04/11 10:21:59;;;;;;;49.27;29.17;;;;;;;11.73;67.08;99478.59;4979012;28;20200;-85
2022/04/11 10:24:45;;;;;;;30.13;17.50;;;;;;;11.78;66.31;99486.41;4999629;28;20223;-86
2022/04/11 10:27:16;;;;;;;15.43;9.77;;;;;;;11.77;66.26;99477.94;4997809;28;20599;-84
2022/04/11 10:29:42;;;;;;;21.77;12.67;;;;;;;12.04;66.23;99483.22;5003390;28;20196;-85
2022/04/11 10:32:10;;;;;;;18.03;12.20;;;;;;;11.93;67.19;99481.94;5016108;28;20635;-85
2022/04/11 10:34:54;;;;;;;17.03;10.70;;;;;;;12.02;65.53;99482.31;5015628;28;20537;-88
2022/04/11 10:37:25;;;;;;;19.43;12.20;;;;;;;10.63;64.04;99162.47;5015774;28;20261;-86
2022/04/11 10:39:52;;;;;;;32.30;20.13;;;;;;;12.90;63.76;99476.31;5029571;28;20240;-85
2022/04/11 10:42:22;;;;;;;16.67;9.90;;;;;;;12.65;60.97;99381.41;5015194;28;20211;-86
2022/04/11 10:44:54;;;;;;;10.73;5.73;;;;;;;13.18;58.31;99488.34;5014162;28;20175;-88
2022/04/11 10:47:29;;;;;;;7.53;5.00;;;;;;;12.96;57.87;99476.50;5013796;28;20749;-88
2022/04/11 10:49:54;;;;;;;10.57;6.70;;;;;;;13.31;58.00;99474.38;5014242;28;20313;-86
2022/04/11 10:52:29;;;;;;;15.87;8.53;;;;;;;13.74;58.40;99469.00;5015092;28;20253;-87
2022/04/11 10:54:55;;;;;;;15.80;8.50;;;;;;;13.79;57.84;99470.03;5013387;28;20248;-87
2022/04/11 10:57:37;;;;;;;15.23;8.90;;;;;;;13.59;56.96;99395.63;5030248;28;20244;-85
2022/04/11 11:00:20;;;;;;;29.23;16.90;;;;;;;12.86;56.67;99304.25;5014900;28;20174;-87
2022/04/11 11:02:59;;;;;;;9.00;5.60;;;;;;;13.92;56.13;99467.06;5029713;28;20209;-87
2022/04/11 11:05:32;;;;;;;18.47;11.03;;;;;;;13.85;56.14;99467.66;5015409;28;20170;-86
2022/04/11 11:08:10;;;;;;;14.73;9.20;;;;;;;13.76;56.51;99470.78;5004704;28;20171;-85
2022/04/11 11:10:44;;;;;;;16.00;8.30;;;;;;;13.57;57.19;99468.47;5008962;28;20166;-86
2022/04/11 11:13:32;;;;;;;13.40;6.40;;;;;;;13.37;56.22;99464.41;5013798;28;20529;-86
2022/04/11 11:16:03;;;;;;;7.50;4.60;;;;;;;13.08;57.17;99455.78;5019842;28;20159;-85
2022/04/11 11:21:17;;;;;;;8.97;6.77;;;;;;;13.36;52.72;99427.94;5008887;28;20236;-85
2022/04/11 11:24:02;;;;;;;16.63;10.60;;;;;;;14.10;51.58;99472.72;5015602;28;20177;-85
2022/04/11 11:26:48;;;;;;;26.13;14.73;;;;;;;13.81;49.25;99454.00;5015271;28;20646;-86
2022/04/11 11:29:25;;;;;;;7.33;5.00;;;;;;;13.43;49.51;99409.50;5013458;28;20676;-86
2022/04/11 11:31:58;;;;;;;15.87;10.30;;;;;;;13.67;50.04;99457.78;5005287;28;20169;-86
2022/04/11 11:34:26;;;;;;;16.00;9.77;;;;;;;13.09;50.28;99339.75;5013400;28;20210;-86